createdAt,value
2019-03-27T00:00:55.360Z,77.62
2019-03-27T00:02:00.893Z,77.53
2019-03-27T00:03:06.379Z,76.96
2019-03-27T00:04:11.890Z,77.81
2019-03-27T00:05:17.403Z,78.10
2019-03-27T00:06:22.910Z,78.00
2019-03-27T00:07:28.430Z,77.72
2019-03-27T00:08:33.923Z,77.81
2019-03-27T00:09:39.436Z,77.43
2019-03-27T00:10:44.941Z,77.91
2019-03-27T00:11:50.453Z,77.43
2019-03-27T00:12:55.954Z,77.72
2019-03-27T00:14:01.463Z,77.53
2019-03-27T00:15:13.391Z,78.19
2019-03-27T00:16:12.484Z,78.57
2019-03-27T00:17:18.006Z,78.00
2019-03-27T00:18:23.512Z,78.57
2019-03-27T00:19:29.020Z,78.77
2019-03-27T00:20:34.517Z,78.86
2019-03-27T00:21:40.027Z,78.96
2019-03-27T00:22:45.535Z,78.96
2019-03-27T00:23:51.043Z,79.24
2019-03-27T00:24:56.549Z,79.14
2019-03-27T00:26:02.074Z,78.96
2019-03-27T00:27:07.569Z,79.05
2019-03-27T00:28:13.075Z,79.14
2019-03-27T00:29:18.585Z,79.39
2019-03-27T00:30:24.093Z,79.20
2019-03-27T00:31:29.598Z,79.11
2019-03-27T00:32:35.115Z,79.58
2019-03-27T00:33:40.614Z,80.15
2019-03-27T00:34:46.137Z,79.77
2019-03-27T00:35:51.641Z,80.24
2019-03-27T00:36:57.145Z,80.05
2019-03-27T00:38:02.679Z,80.05
2019-03-27T00:39:08.158Z,80.05
2019-03-27T00:40:13.668Z,79.96
2019-03-27T00:41:19.171Z,79.96
2019-03-27T00:42:24.682Z,80.15
2019-03-27T00:43:30.192Z,80.53
2019-03-27T00:44:35.701Z,80.44
2019-03-27T00:45:41.208Z,80.05
2019-03-27T00:46:46.723Z,80.05
2019-03-27T00:47:52.229Z,79.96
2019-03-27T00:48:57.730Z,80.05
2019-03-27T00:50:03.238Z,80.34
2019-03-27T00:51:08.752Z,80.24
2019-03-27T00:52:14.262Z,80.63
2019-03-27T00:53:19.764Z,80.63
2019-03-27T00:54:25.270Z,80.44
2019-03-27T00:55:30.782Z,80.44
2019-03-27T00:56:36.291Z,80.91
2019-03-27T00:57:41.799Z,80.72
2019-03-27T00:58:47.307Z,80.82
2019-03-27T00:59:52.829Z,80.82
2019-03-27T01:00:58.321Z,81.29
2019-03-27T01:02:03.833Z,81.58
2019-03-27T01:03:09.338Z,81.10
2019-03-27T01:04:14.842Z,81.67
2019-03-27T01:05:20.350Z,81.01
2019-03-27T01:06:25.859Z,81.29
2019-03-27T01:07:31.370Z,81.20
2019-03-27T01:08:36.884Z,81.29
2019-03-27T01:09:42.386Z,81.29
2019-03-27T01:10:47.892Z,81.20
2019-03-27T01:11:53.399Z,81.38
2019-03-27T01:12:58.921Z,81.20
2019-03-27T01:14:04.428Z,81.44
2019-03-27T01:15:09.934Z,81.58
2019-03-27T01:16:15.433Z,81.44
2019-03-27T01:17:20.936Z,80.77
2019-03-27T01:18:26.451Z,81.06
2019-03-27T01:19:31.961Z,81.16
2019-03-27T01:20:37.467Z,80.87
2019-03-27T01:21:42.970Z,80.96
2019-03-27T01:22:48.483Z,80.96
2019-03-27T01:23:53.992Z,81.25
2019-03-27T01:24:59.497Z,81.35
2019-03-27T01:26:05.002Z,81.54
2019-03-27T01:27:10.509Z,81.63
2019-03-27T01:28:16.024Z,81.35
2019-03-27T01:29:21.525Z,81.25
2019-03-27T01:30:27.038Z,81.73
2019-03-27T01:31:32.539Z,81.35
2019-03-27T01:32:38.054Z,82.10
2019-03-27T01:33:43.557Z,81.73
2019-03-27T01:34:49.064Z,82.10
2019-03-27T01:35:54.569Z,82.01
2019-03-27T01:37:00.098Z,81.92
2019-03-27T01:38:05.606Z,81.73
2019-03-27T01:39:11.096Z,82.29
2019-03-27T01:40:16.605Z,82.68
2019-03-27T01:41:22.112Z,82.68
2019-03-27T01:42:27.618Z,82.58
2019-03-27T01:43:33.126Z,82.58
2019-03-27T01:44:38.629Z,82.68
2019-03-27T01:45:52.848Z,82.49
2019-03-27T01:46:49.649Z,82.77
2019-03-27T01:47:55.158Z,82.49
2019-03-27T01:49:00.667Z,82.77
2019-03-27T01:50:06.179Z,82.68
2019-03-27T01:51:11.690Z,82.54
2019-03-27T01:52:17.188Z,82.68
2019-03-27T01:53:22.694Z,82.54
2019-03-27T01:54:28.199Z,82.58
2019-03-27T01:55:33.708Z,82.29
2019-03-27T01:56:39.218Z,82.68
2019-03-27T01:57:44.741Z,82.35
2019-03-27T01:58:50.241Z,82.73
2019-03-27T01:59:55.740Z,82.73
2019-03-27T02:01:01.253Z,82.26
2019-03-27T02:02:06.752Z,82.54
2019-03-27T02:03:12.260Z,82.73
2019-03-27T02:04:17.770Z,82.73
2019-03-27T02:05:23.280Z,83.01
2019-03-27T02:06:28.782Z,83.39
2019-03-27T02:07:34.290Z,83.68
2019-03-27T02:08:39.795Z,83.39
2019-03-27T02:09:45.303Z,83.30
2019-03-27T02:10:50.811Z,83.49
2019-03-27T02:11:56.324Z,83.68
2019-03-27T02:13:01.831Z,83.49
2019-03-27T02:14:07.336Z,83.78
2019-03-27T02:15:12.852Z,84.06
2019-03-27T02:16:18.344Z,83.59
2019-03-27T02:17:23.869Z,83.59
2019-03-27T02:18:29.360Z,83.87
2019-03-27T02:19:34.869Z,83.78
2019-03-27T02:20:40.371Z,84.06
2019-03-27T02:21:45.887Z,83.78
2019-03-27T02:22:51.398Z,83.97
2019-03-27T02:23:56.896Z,83.97
2019-03-27T02:25:02.413Z,84.44
2019-03-27T02:26:07.915Z,84.34
2019-03-27T02:27:13.420Z,84.34
2019-03-27T02:28:18.929Z,84.25
2019-03-27T02:29:24.446Z,84.63
2019-03-27T02:30:29.941Z,84.72
2019-03-27T02:31:35.453Z,84.44
2019-03-27T02:32:40.954Z,84.44
2019-03-27T02:33:46.474Z,84.44
2019-03-27T02:34:51.971Z,84.72
2019-03-27T02:35:57.486Z,84.72
2019-03-27T02:37:02.989Z,85.01
2019-03-27T02:38:08.493Z,84.72
2019-03-27T02:39:14.010Z,84.72
2019-03-27T02:40:19.517Z,85.30
2019-03-27T02:41:25.024Z,85.11
2019-03-27T02:42:30.543Z,85.01
2019-03-27T02:43:36.028Z,84.82
2019-03-27T02:44:41.535Z,85.11
2019-03-27T02:45:47.042Z,84.72
2019-03-27T02:46:52.555Z,84.72
2019-03-27T02:47:58.074Z,85.20
2019-03-27T02:49:03.562Z,84.63
2019-03-27T02:50:09.079Z,84.72
2019-03-27T02:51:14.634Z,84.91
2019-03-27T02:52:20.089Z,84.72
2019-03-27T02:53:25.593Z,84.44
2019-03-27T02:54:31.095Z,84.34
2019-03-27T02:55:36.609Z,84.72
2019-03-27T02:56:42.113Z,84.72
2019-03-27T02:57:47.636Z,84.72
2019-03-27T02:58:53.139Z,84.82
2019-03-27T02:59:58.649Z,84.63
2019-03-27T03:01:04.210Z,85.20
2019-03-27T03:02:09.646Z,85.01
2019-03-27T03:03:15.157Z,84.72
2019-03-27T03:04:20.663Z,85.11
2019-03-27T03:05:26.185Z,84.63
2019-03-27T03:06:31.681Z,84.34
2019-03-27T03:07:37.190Z,84.91
2019-03-27T03:08:42.696Z,84.72
2019-03-27T03:09:48.197Z,84.53
2019-03-27T03:10:53.740Z,84.44
2019-03-27T03:11:59.221Z,84.91
2019-03-27T03:13:04.724Z,84.44
2019-03-27T03:14:10.230Z,84.72
2019-03-27T03:15:15.737Z,84.16
2019-03-27T03:16:21.247Z,84.34
2019-03-27T03:17:26.764Z,84.44
2019-03-27T03:18:32.255Z,84.16
2019-03-27T03:19:37.762Z,84.72
2019-03-27T03:20:43.273Z,84.82
2019-03-27T03:21:48.784Z,84.63
2019-03-27T03:22:54.286Z,84.72
2019-03-27T03:23:59.794Z,84.53
2019-03-27T03:25:05.306Z,84.34
2019-03-27T03:26:10.819Z,84.34
2019-03-27T03:27:16.317Z,84.91
2019-03-27T03:28:21.825Z,84.63
2019-03-27T03:29:27.333Z,84.72
2019-03-27T03:30:32.893Z,84.82
2019-03-27T03:31:38.355Z,84.72
2019-03-27T03:32:43.851Z,84.34
2019-03-27T03:33:49.367Z,84.53
2019-03-27T03:34:54.870Z,84.44
2019-03-27T03:36:00.372Z,84.34
2019-03-27T03:37:05.886Z,84.44
2019-03-27T03:38:11.406Z,84.44
2019-03-27T03:39:16.901Z,84.25
2019-03-27T03:40:22.407Z,84.68
2019-03-27T03:41:27.915Z,84.53
2019-03-27T03:42:33.421Z,84.44
2019-03-27T03:43:38.932Z,84.72
2019-03-27T03:44:44.429Z,84.63
2019-03-27T03:45:49.950Z,84.44
2019-03-27T03:47:00.030Z,84.34
2019-03-27T03:48:00.949Z,84.91
2019-03-27T03:49:06.464Z,84.82
2019-03-27T03:50:11.980Z,84.59
2019-03-27T03:51:17.494Z,84.59
2019-03-27T03:52:22.982Z,84.68
2019-03-27T03:53:28.485Z,85.16
2019-03-27T03:54:33.993Z,84.49
2019-03-27T03:55:39.502Z,84.97
2019-03-27T03:56:45.006Z,85.06
2019-03-27T03:57:50.510Z,85.53
2019-03-27T03:58:56.026Z,85.53
2019-03-27T04:00:01.602Z,85.44
2019-03-27T04:01:07.040Z,85.16
2019-03-27T04:02:12.543Z,85.25
2019-03-27T04:03:18.045Z,85.96
2019-03-27T04:04:23.578Z,85.91
2019-03-27T04:05:29.062Z,85.44
2019-03-27T04:06:34.566Z,85.68
2019-03-27T04:07:40.082Z,85.49
2019-03-27T04:08:45.581Z,85.86
2019-03-27T04:09:51.098Z,85.39
2019-03-27T04:10:56.596Z,85.86
2019-03-27T04:12:02.100Z,85.39
2019-03-27T04:13:07.609Z,85.86
2019-03-27T04:14:13.116Z,85.86
2019-03-27T04:15:18.627Z,85.91
2019-03-27T04:16:24.134Z,86.15
2019-03-27T04:17:29.633Z,85.96
2019-03-27T04:18:35.154Z,86.53
2019-03-27T04:19:40.649Z,86.72
2019-03-27T04:20:46.158Z,86.53
2019-03-27T04:21:51.675Z,86.15
2019-03-27T04:22:57.172Z,85.39
2019-03-27T04:24:02.680Z,85.39
2019-03-27T04:25:08.186Z,85.30
2019-03-27T04:26:13.696Z,85.68
2019-03-27T04:27:19.202Z,85.58
2019-03-27T04:28:24.705Z,85.30
2019-03-27T04:29:30.216Z,85.39
2019-03-27T04:30:35.723Z,85.39
2019-03-27T04:31:41.263Z,85.30
2019-03-27T04:32:46.732Z,85.39
2019-03-27T04:33:52.249Z,85.39
2019-03-27T04:34:57.746Z,85.39
2019-03-27T04:36:03.253Z,85.30
2019-03-27T04:37:08.775Z,85.68
2019-03-27T04:38:14.276Z,85.86
2019-03-27T04:39:19.780Z,86.72
2019-03-27T04:40:25.801Z,86.53
2019-03-27T04:41:30.787Z,85.39
2019-03-27T04:42:36.300Z,85.58
2019-03-27T04:43:41.806Z,85.49
2019-03-27T04:44:47.308Z,85.01
2019-03-27T04:45:52.820Z,85.20
2019-03-27T04:46:58.352Z,85.58
2019-03-27T04:48:03.831Z,85.77
2019-03-27T04:49:09.340Z,85.49
2019-03-27T04:50:14.849Z,85.58
2019-03-27T04:51:20.350Z,85.49
2019-03-27T04:52:25.858Z,85.39
2019-03-27T04:53:31.374Z,85.30
2019-03-27T04:54:36.892Z,86.15
2019-03-27T04:55:42.386Z,86.05
2019-03-27T04:56:47.887Z,86.15
2019-03-27T04:57:53.391Z,86.05
2019-03-27T04:58:58.909Z,86.24
2019-03-27T05:00:04.412Z,86.24
2019-03-27T05:01:09.918Z,86.15
2019-03-27T05:02:15.422Z,85.96
2019-03-27T05:03:20.939Z,86.15
2019-03-27T05:04:26.444Z,85.96
2019-03-27T05:05:31.933Z,85.77
2019-03-27T05:06:37.448Z,86.63
2019-03-27T05:07:42.958Z,86.53
2019-03-27T05:08:48.464Z,86.43
2019-03-27T05:09:53.968Z,86.49
2019-03-27T05:10:59.514Z,86.53
2019-03-27T05:12:04.980Z,86.82
2019-03-27T05:13:10.492Z,87.10
2019-03-27T05:14:15.998Z,86.63
2019-03-27T05:15:21.505Z,87.38
2019-03-27T05:16:27.014Z,87.19
2019-03-27T05:17:45.322Z,87.57
2019-03-27T05:18:38.028Z,87.01
2019-03-27T05:19:43.537Z,87.10
2019-03-27T05:20:49.046Z,87.01
2019-03-27T05:21:54.556Z,87.10
2019-03-27T05:23:00.051Z,87.29
2019-03-27T05:24:05.561Z,87.10
2019-03-27T05:25:11.075Z,87.01
2019-03-27T05:26:16.578Z,87.01
2019-03-27T05:27:22.090Z,87.48
2019-03-27T05:28:27.590Z,87.57
2019-03-27T05:29:33.096Z,87.95
2019-03-27T05:30:38.605Z,87.48
2019-03-27T05:31:44.127Z,87.76
2019-03-27T05:32:49.668Z,87.57
2019-03-27T05:33:55.181Z,87.76
2019-03-27T05:35:00.685Z,87.19
2019-03-27T05:36:06.170Z,87.48
2019-03-27T05:37:11.691Z,87.76
2019-03-27T05:38:17.175Z,87.48
2019-03-27T05:39:22.701Z,87.57
2019-03-27T05:40:28.195Z,87.38
2019-03-27T05:41:33.726Z,87.38
2019-03-27T05:42:39.189Z,87.38
2019-03-27T05:43:44.685Z,87.76
2019-03-27T05:44:50.210Z,87.57
2019-03-27T05:45:55.707Z,87.57
2019-03-27T05:47:01.210Z,87.19
2019-03-27T05:48:06.719Z,87.81
2019-03-27T05:49:12.227Z,87.76
2019-03-27T05:50:17.743Z,87.57
2019-03-27T05:51:23.233Z,87.81
2019-03-27T05:52:28.749Z,87.71
2019-03-27T05:53:34.253Z,87.81
2019-03-27T05:54:39.761Z,87.52
2019-03-27T05:55:45.271Z,87.62
2019-03-27T05:56:50.782Z,87.62
2019-03-27T05:57:56.284Z,87.62
2019-03-27T05:59:01.790Z,87.48
2019-03-27T06:00:07.305Z,87.57
2019-03-27T06:01:12.806Z,87.57
2019-03-27T06:02:18.314Z,87.81
2019-03-27T06:03:23.817Z,87.90
2019-03-27T06:04:29.328Z,87.62
2019-03-27T06:05:34.833Z,88.19
2019-03-27T06:06:40.347Z,88.09
2019-03-27T06:07:45.862Z,88.09
2019-03-27T06:08:51.362Z,88.38
2019-03-27T06:09:56.866Z,88.19
2019-03-27T06:11:02.371Z,88.19
2019-03-27T06:12:07.878Z,88.38
2019-03-27T06:13:13.386Z,88.95
2019-03-27T06:14:18.899Z,88.85
2019-03-27T06:15:24.398Z,89.23
2019-03-27T06:16:29.905Z,89.61
2019-03-27T06:17:35.414Z,90.37
2019-03-27T06:18:40.923Z,90.37
2019-03-27T06:19:46.428Z,90.37
2019-03-27T06:20:51.935Z,90.37
2019-03-27T06:21:57.451Z,90.28
2019-03-27T06:23:02.950Z,89.52
2019-03-27T06:24:08.463Z,89.56
2019-03-27T06:25:13.964Z,89.56
2019-03-27T06:26:19.475Z,89.85
2019-03-27T06:27:24.978Z,90.14
2019-03-27T06:28:30.489Z,90.14
2019-03-27T06:29:35.992Z,89.85
2019-03-27T06:30:41.507Z,89.66
2019-03-27T06:31:47.008Z,89.66
2019-03-27T06:32:52.523Z,89.28
2019-03-27T06:33:58.028Z,89.28
2019-03-27T06:35:03.539Z,89.09
2019-03-27T06:36:09.046Z,88.90
2019-03-27T06:37:14.551Z,89.09
2019-03-27T06:38:20.056Z,87.85
2019-03-27T06:39:25.610Z,88.33
2019-03-27T06:40:31.068Z,88.13
2019-03-27T06:41:36.569Z,87.95
2019-03-27T06:42:42.089Z,88.13
2019-03-27T06:43:47.593Z,87.66
2019-03-27T06:44:53.115Z,87.76
2019-03-27T06:45:58.670Z,87.76
2019-03-27T06:47:04.119Z,87.76
2019-03-27T06:48:09.618Z,87.57
2019-03-27T06:49:15.127Z,87.90
2019-03-27T06:50:20.648Z,87.47
2019-03-27T06:51:39.206Z,87.32
2019-03-27T06:52:31.656Z,87.32
2019-03-27T06:53:37.164Z,87.04
2019-03-27T06:54:42.678Z,87.23
2019-03-27T06:55:48.183Z,87.32
2019-03-27T06:56:53.687Z,87.13
2019-03-27T06:57:59.216Z,87.13
2019-03-27T06:59:04.707Z,87.23
2019-03-27T07:00:10.219Z,87.32
2019-03-27T07:01:15.725Z,87.61
2019-03-27T07:02:21.230Z,86.94
2019-03-27T07:03:26.737Z,87.13
2019-03-27T07:04:32.254Z,87.13
2019-03-27T07:05:37.758Z,86.85
2019-03-27T07:06:43.259Z,87.04
2019-03-27T07:07:48.776Z,86.76
2019-03-27T07:08:54.284Z,86.57
2019-03-27T07:09:59.786Z,86.66
2019-03-27T07:11:05.296Z,86.38
2019-03-27T07:12:20.940Z,85.99
2019-03-27T07:13:16.306Z,86.09
2019-03-27T07:14:21.816Z,85.99
2019-03-27T07:15:27.326Z,86.18
2019-03-27T07:16:32.830Z,85.99
2019-03-27T07:17:38.349Z,86.38
2019-03-27T07:18:43.847Z,86.47
2019-03-27T07:19:49.358Z,86.38
2019-03-27T07:20:54.869Z,86.09
2019-03-27T07:22:00.374Z,85.90
2019-03-27T07:23:05.881Z,86.09
2019-03-27T07:24:11.393Z,85.71
2019-03-27T07:25:16.899Z,85.14
2019-03-27T07:26:22.407Z,84.95
2019-03-27T07:27:27.916Z,84.66
2019-03-27T07:28:33.424Z,84.56
2019-03-27T07:29:38.925Z,83.71
2019-03-27T07:30:44.446Z,83.90
2019-03-27T07:31:49.949Z,84.00
2019-03-27T07:32:55.464Z,83.71
2019-03-27T07:34:00.966Z,84.38
2019-03-27T07:35:06.521Z,84.66
2019-03-27T07:36:11.988Z,84.76
2019-03-27T07:37:17.505Z,85.18
2019-03-27T07:38:23.003Z,84.70
2019-03-27T07:39:28.505Z,84.80
2019-03-27T07:40:34.016Z,85.47
2019-03-27T07:41:39.526Z,84.70
2019-03-27T07:42:45.033Z,83.65
2019-03-27T07:43:50.539Z,83.75
2019-03-27T07:44:56.054Z,83.94
2019-03-27T07:46:01.558Z,83.75
2019-03-27T07:47:07.071Z,83.85
2019-03-27T07:48:12.578Z,84.13
2019-03-27T07:49:18.084Z,83.37
2019-03-27T07:50:23.594Z,83.18
2019-03-27T07:51:29.103Z,82.80
2019-03-27T07:52:34.605Z,82.70
2019-03-27T07:53:40.114Z,82.90
2019-03-27T07:54:45.629Z,82.90
2019-03-27T07:55:51.141Z,82.42
2019-03-27T07:56:56.642Z,82.32
2019-03-27T07:58:02.146Z,82.80
2019-03-27T07:59:07.662Z,82.08
2019-03-27T08:00:13.178Z,82.27
2019-03-27T08:01:18.670Z,82.37
2019-03-27T08:02:24.182Z,82.27
2019-03-27T08:03:29.704Z,82.75
2019-03-27T08:04:35.205Z,81.79
2019-03-27T08:05:40.708Z,82.08
2019-03-27T08:06:46.223Z,81.89
2019-03-27T08:07:51.726Z,82.08
2019-03-27T08:08:57.238Z,81.70
2019-03-27T08:10:02.742Z,82.08
2019-03-27T08:11:08.260Z,81.41
2019-03-27T08:12:13.817Z,81.32
2019-03-27T08:13:19.273Z,81.13
2019-03-27T08:14:24.790Z,81.32
2019-03-27T08:15:30.300Z,81.32
2019-03-27T08:16:35.802Z,81.23
2019-03-27T08:17:41.318Z,81.32
2019-03-27T08:18:46.818Z,81.32
2019-03-27T08:19:52.324Z,80.98
2019-03-27T08:20:57.835Z,81.07
2019-03-27T08:22:03.351Z,80.88
2019-03-27T08:23:08.859Z,80.41
2019-03-27T08:24:14.368Z,80.60
2019-03-27T08:25:19.876Z,80.02
2019-03-27T08:26:25.406Z,79.74
2019-03-27T08:27:30.892Z,79.27
2019-03-27T08:28:36.398Z,78.88
2019-03-27T08:29:41.911Z,78.88
2019-03-27T08:30:47.414Z,79.36
2019-03-27T08:31:52.920Z,78.98
2019-03-27T08:32:58.442Z,78.59
2019-03-27T08:34:03.950Z,77.93
2019-03-27T08:35:09.451Z,77.64
2019-03-27T08:36:14.965Z,77.45
2019-03-27T08:37:20.472Z,78.31
2019-03-27T08:38:25.978Z,78.59
2019-03-27T08:39:31.494Z,77.26
2019-03-27T08:40:37.002Z,76.69
2019-03-27T08:41:42.511Z,76.40
2019-03-27T08:42:48.015Z,76.79
2019-03-27T08:43:53.529Z,76.79
2019-03-27T08:44:59.042Z,77.07
2019-03-27T08:46:04.543Z,76.06
2019-03-27T08:47:10.046Z,75.74
2019-03-27T08:48:15.560Z,75.96
2019-03-27T08:49:22.423Z,75.78
2019-03-27T08:50:26.580Z,75.78
2019-03-27T08:51:32.092Z,75.96
2019-03-27T08:52:37.599Z,76.64
2019-03-27T08:53:43.115Z,76.25
2019-03-27T08:54:48.620Z,75.78
2019-03-27T08:55:54.127Z,75.78
2019-03-27T08:56:59.643Z,75.78
2019-03-27T08:58:05.149Z,76.06
2019-03-27T08:59:10.661Z,74.44
2019-03-27T09:00:16.164Z,73.87
2019-03-27T09:01:21.680Z,74.25
2019-03-27T09:02:27.193Z,74.16
2019-03-27T09:03:32.698Z,75.01
2019-03-27T09:04:38.216Z,75.49
2019-03-27T09:05:43.726Z,74.54
2019-03-27T09:06:49.225Z,74.73
2019-03-27T09:07:54.731Z,74.63
2019-03-27T09:09:00.243Z,74.25
2019-03-27T09:10:05.754Z,74.44
2019-03-27T09:11:11.268Z,74.54
2019-03-27T09:12:16.763Z,74.35
2019-03-27T09:13:22.280Z,74.44
2019-03-27T09:14:27.792Z,75.11
2019-03-27T09:15:33.303Z,75.01
2019-03-27T09:16:38.803Z,74.25
2019-03-27T09:17:44.316Z,73.01
2019-03-27T09:18:49.833Z,72.25
2019-03-27T09:19:55.342Z,72.76
2019-03-27T09:21:00.846Z,72.86
2019-03-27T09:22:06.359Z,73.33
2019-03-27T09:23:11.874Z,73.33
2019-03-27T09:24:17.383Z,73.81
2019-03-27T09:25:22.884Z,73.52
2019-03-27T09:26:28.407Z,73.52
2019-03-27T09:27:33.908Z,73.33
2019-03-27T09:28:39.423Z,72.09
2019-03-27T09:29:45.005Z,72.67
2019-03-27T09:30:50.435Z,72.48
2019-03-27T09:31:55.948Z,73.05
2019-03-27T09:33:01.459Z,72.38
2019-03-27T09:34:06.965Z,72.92
2019-03-27T09:35:12.500Z,72.63
2019-03-27T09:36:17.988Z,72.44
2019-03-27T09:37:23.496Z,71.48
2019-03-27T09:38:29.006Z,71.96
2019-03-27T09:39:34.516Z,71.39
2019-03-27T09:40:40.027Z,71.87
2019-03-27T09:41:45.544Z,71.77
2019-03-27T09:42:51.050Z,71.43
2019-03-27T09:43:56.551Z,71.33
2019-03-27T09:45:02.068Z,70.57
2019-03-27T09:46:07.574Z,70.19
2019-03-27T09:47:13.096Z,70.57
2019-03-27T09:48:18.594Z,70.09
2019-03-27T09:49:24.104Z,70.00
2019-03-27T09:50:29.643Z,70.09
2019-03-27T09:51:35.124Z,69.14
2019-03-27T09:52:40.631Z,69.43
2019-03-27T09:53:46.145Z,68.85
2019-03-27T09:54:51.648Z,68.76
2019-03-27T09:55:57.160Z,68.85
2019-03-27T09:57:02.677Z,69.14
2019-03-27T09:58:08.186Z,69.46
2019-03-27T09:59:13.691Z,69.71
2019-03-27T10:00:19.211Z,68.95
2019-03-27T10:01:24.732Z,68.66
2019-03-27T10:02:30.224Z,67.52
2019-03-27T10:03:35.734Z,66.56
2019-03-27T10:04:41.242Z,66.38
2019-03-27T10:05:46.756Z,65.80
2019-03-27T10:06:52.265Z,65.83
2019-03-27T10:07:57.773Z,65.93
2019-03-27T10:09:03.284Z,66.50
2019-03-27T10:10:08.795Z,66.31
2019-03-27T10:11:14.301Z,66.12
2019-03-27T10:12:19.832Z,65.39
2019-03-27T10:13:25.331Z,65.20
2019-03-27T10:14:30.832Z,65.01
2019-03-27T10:15:36.349Z,65.20
2019-03-27T10:16:41.853Z,65.10
2019-03-27T10:17:47.371Z,64.62
2019-03-27T10:18:52.874Z,64.15
2019-03-27T10:20:03.707Z,64.91
2019-03-27T10:21:03.908Z,65.20
2019-03-27T10:22:09.407Z,64.62
2019-03-27T10:23:14.918Z,62.78
2019-03-27T10:24:20.426Z,62.49
2019-03-27T10:25:25.935Z,61.95
2019-03-27T10:26:31.451Z,61.86
2019-03-27T10:27:36.962Z,62.15
2019-03-27T10:28:42.468Z,63.48
2019-03-27T10:29:47.981Z,63.57
2019-03-27T10:30:53.509Z,62.34
2019-03-27T10:31:59.003Z,61.86
2019-03-27T10:33:04.514Z,62.27
2019-03-27T10:34:10.026Z,62.18
2019-03-27T10:35:15.541Z,61.22
2019-03-27T10:36:21.036Z,61.32
2019-03-27T10:37:26.558Z,61.60
2019-03-27T10:38:32.063Z,60.74
2019-03-27T10:39:37.578Z,60.84
2019-03-27T10:40:43.109Z,60.39
2019-03-27T10:41:48.608Z,61.72
2019-03-27T10:42:54.104Z,60.87
2019-03-27T10:43:59.704Z,59.91
2019-03-27T10:45:05.140Z,60.58
2019-03-27T10:46:10.641Z,60.39
2019-03-27T10:47:16.149Z,60.58
2019-03-27T10:48:21.661Z,60.77
2019-03-27T10:49:27.179Z,59.72
2019-03-27T10:50:32.689Z,59.72
2019-03-27T10:51:38.197Z,59.05
2019-03-27T10:52:43.709Z,58.29
2019-03-27T10:53:49.216Z,57.53
2019-03-27T10:54:54.732Z,57.53
2019-03-27T10:56:00.237Z,57.04
2019-03-27T10:57:05.741Z,56.95
2019-03-27T10:58:11.262Z,57.90
2019-03-27T10:59:16.775Z,56.95
2019-03-27T11:00:22.280Z,57.81
2019-03-27T11:01:27.793Z,58.38
2019-03-27T11:02:33.310Z,57.53
2019-03-27T11:03:38.819Z,57.81
2019-03-27T11:04:44.324Z,57.71
2019-03-27T11:05:49.848Z,59.05
2019-03-27T11:06:55.349Z,60.01
2019-03-27T11:08:00.864Z,60.87
2019-03-27T11:09:06.384Z,60.01
2019-03-27T11:10:11.889Z,59.12
2019-03-27T11:11:17.405Z,58.36
2019-03-27T11:12:22.908Z,58.93
2019-03-27T11:13:28.416Z,60.07
2019-03-27T11:14:38.038Z,60.17
2019-03-27T11:15:39.432Z,60.07
2019-03-27T11:16:44.956Z,60.27
2019-03-27T11:17:50.458Z,60.74
2019-03-27T11:18:55.977Z,60.55
2019-03-27T11:20:01.498Z,60.36
2019-03-27T11:21:06.992Z,60.74
2019-03-27T11:22:12.528Z,59.88
2019-03-27T11:23:18.016Z,59.53
2019-03-27T11:24:23.534Z,59.81
2019-03-27T11:25:29.045Z,58.95
2019-03-27T11:26:34.557Z,58.10
2019-03-27T11:27:40.065Z,57.43
2019-03-27T11:28:45.572Z,56.28
2019-03-27T11:29:51.096Z,57.14
2019-03-27T11:30:56.587Z,56.95
2019-03-27T11:32:02.108Z,55.99
2019-03-27T11:33:07.628Z,55.32
2019-03-27T11:34:13.131Z,55.61
2019-03-27T11:35:18.644Z,56.57
2019-03-27T11:36:24.152Z,57.14
2019-03-27T11:37:29.680Z,56.79
2019-03-27T11:38:37.551Z,55.26
2019-03-27T11:39:40.691Z,55.83
2019-03-27T11:40:46.193Z,55.35
2019-03-27T11:41:51.705Z,55.93
2019-03-27T11:42:57.221Z,55.83
2019-03-27T11:44:02.741Z,55.74
2019-03-27T11:45:08.251Z,55.74
2019-03-27T11:46:13.771Z,56.21
2019-03-27T11:47:19.264Z,56.79
2019-03-27T11:48:24.777Z,56.95
2019-03-27T11:49:30.280Z,56.67
2019-03-27T11:50:44.670Z,57.43
2019-03-27T11:51:41.307Z,58.58
2019-03-27T11:52:46.822Z,58.29
2019-03-27T11:53:52.331Z,57.53
2019-03-27T11:54:57.843Z,57.33
2019-03-27T11:56:03.630Z,57.33
2019-03-27T11:57:08.868Z,57.33
2019-03-27T11:58:15.008Z,56.57
2019-03-27T11:59:19.888Z,56.85
2019-03-27T12:00:25.400Z,56.85
2019-03-27T12:01:40.605Z,57.24
2019-03-27T12:02:36.424Z,57.43
2019-03-27T12:03:41.934Z,56.76
2019-03-27T12:04:47.441Z,56.76
2019-03-27T12:05:52.961Z,56.95
2019-03-27T12:06:58.476Z,55.80
2019-03-27T12:08:03.977Z,56.67
2019-03-27T12:09:09.493Z,56.09
2019-03-27T12:10:14.997Z,55.99
2019-03-27T12:11:20.517Z,56.95
2019-03-27T12:12:26.021Z,57.07
2019-03-27T12:13:31.542Z,57.17
2019-03-27T12:14:37.057Z,56.12
2019-03-27T12:15:42.556Z,55.54
2019-03-27T12:16:50.009Z,55.64
2019-03-27T12:17:53.589Z,55.35
2019-03-27T12:18:59.093Z,55.86
2019-03-27T12:20:04.623Z,56.24
2019-03-27T12:21:10.112Z,55.47
2019-03-27T12:22:15.625Z,54.61
2019-03-27T12:23:21.130Z,55.19
2019-03-27T12:24:28.637Z,54.43
2019-03-27T12:25:32.169Z,54.33
2019-03-27T12:26:37.668Z,54.61
2019-03-27T12:27:43.186Z,55.38
2019-03-27T12:28:48.703Z,56.15
2019-03-27T12:29:54.214Z,55.86
2019-03-27T12:30:59.721Z,55.76
2019-03-27T12:32:05.232Z,55.86
2019-03-27T12:33:10.746Z,56.05
2019-03-27T12:34:16.261Z,55.86
2019-03-27T12:35:21.769Z,56.05
2019-03-27T12:36:27.286Z,55.86
2019-03-27T12:37:32.780Z,55.67
2019-03-27T12:38:38.310Z,56.27
2019-03-27T12:39:43.811Z,56.37
2019-03-27T12:40:49.325Z,55.86
2019-03-27T12:41:54.842Z,55.31
2019-03-27T12:43:00.356Z,54.45
2019-03-27T12:44:05.861Z,54.74
2019-03-27T12:45:11.383Z,54.45
2019-03-27T12:46:16.893Z,54.55
2019-03-27T12:47:22.409Z,53.69
2019-03-27T12:48:27.914Z,54.26
2019-03-27T12:49:33.424Z,53.59
2019-03-27T12:50:38.938Z,53.69
2019-03-27T12:51:44.465Z,53.20
2019-03-27T12:52:49.960Z,53.20
2019-03-27T12:53:55.475Z,53.59
2019-03-27T12:55:00.999Z,54.48
2019-03-27T12:56:06.497Z,54.48
2019-03-27T12:57:12.012Z,53.52
2019-03-27T12:58:17.525Z,53.81
2019-03-27T12:59:23.090Z,54.48
2019-03-27T13:00:28.574Z,54.10
2019-03-27T13:01:34.063Z,52.37
2019-03-27T13:02:39.573Z,52.37
2019-03-27T13:03:45.181Z,54.00
2019-03-27T13:04:50.600Z,52.95
2019-03-27T13:05:56.118Z,53.74
2019-03-27T13:07:01.631Z,54.79
2019-03-27T13:08:07.146Z,54.60
2019-03-27T13:09:12.672Z,54.50
2019-03-27T13:10:18.164Z,52.78
2019-03-27T13:11:23.673Z,52.30
2019-03-27T13:12:29.184Z,52.30
2019-03-27T13:13:34.700Z,52.97
2019-03-27T13:14:40.212Z,52.78
2019-03-27T13:15:45.731Z,53.45
2019-03-27T13:16:52.413Z,52.59
2019-03-27T13:17:56.752Z,52.40
2019-03-27T13:19:02.273Z,52.97
2019-03-27T13:20:07.784Z,53.16
2019-03-27T13:21:25.534Z,52.97
2019-03-27T13:22:18.825Z,53.45
2019-03-27T13:23:24.318Z,52.87
2019-03-27T13:24:29.834Z,51.15
2019-03-27T13:25:35.353Z,51.25
2019-03-27T13:26:40.862Z,51.15
2019-03-27T13:27:47.604Z,51.82
2019-03-27T13:28:51.893Z,51.54
2019-03-27T13:29:57.402Z,52.11
2019-03-27T13:31:02.918Z,51.63
2019-03-27T13:32:08.425Z,52.56
2019-03-27T13:33:13.933Z,52.66
2019-03-27T13:34:19.454Z,53.14
2019-03-27T13:35:24.970Z,53.81
2019-03-27T13:36:30.476Z,53.04
2019-03-27T13:37:35.985Z,52.56
2019-03-27T13:38:41.506Z,52.47
2019-03-27T13:39:47.015Z,52.92
2019-03-27T13:40:52.530Z,53.11
2019-03-27T13:41:58.039Z,53.11
2019-03-27T13:43:03.559Z,53.30
2019-03-27T13:44:09.068Z,53.71
2019-03-27T13:45:14.578Z,53.58
2019-03-27T13:46:20.093Z,51.23
2019-03-27T13:47:25.605Z,50.03
2019-03-27T13:48:31.126Z,47.87
2019-03-27T13:49:36.633Z,46.95
2019-03-27T13:50:42.144Z,46.11
2019-03-27T13:51:47.661Z,44.65
2019-03-27T13:52:53.177Z,43.63
2019-03-27T13:53:58.694Z,42.21
2019-03-27T13:55:04.198Z,41.27
2019-03-27T13:56:09.720Z,40.47
2019-03-27T13:57:15.245Z,41.14
2019-03-27T13:58:20.755Z,41.71
2019-03-27T13:59:26.270Z,41.59
2019-03-27T14:00:31.786Z,41.86
2019-03-27T14:01:37.299Z,42.50
2019-03-27T14:02:42.831Z,43.16
2019-03-27T14:03:48.345Z,43.16